createdAt,value
2017-10-03T00:01:34.082Z,94349.48
2017-10-03T00:04:01.770Z,94349.19
2017-10-03T00:06:29.483Z,94349.23
2017-10-03T00:08:57.334Z,94356.17
2017-10-03T00:11:25.140Z,94354.27
2017-10-03T00:13:52.879Z,94349.41
2017-10-03T00:16:20.578Z,94357.69
2017-10-03T00:18:48.299Z,94343.31
2017-10-03T00:21:15.990Z,94344.25
2017-10-03T00:23:43.700Z,94334.86
2017-10-03T00:26:11.435Z,94343.64
2017-10-03T00:28:39.106Z,94340.91
2017-10-03T00:31:07.040Z,94327.55
2017-10-03T00:33:34.807Z,94329.25
2017-10-03T00:36:02.581Z,94326.25
2017-10-03T00:38:30.332Z,94320.30
2017-10-03T00:40:58.059Z,94320.25
2017-10-03T00:43:25.782Z,94314.98
2017-10-03T00:45:53.462Z,94313.62
2017-10-03T00:48:21.773Z,94304.73
2017-10-03T00:50:49.529Z,94312.59
2017-10-03T00:53:17.208Z,94307.27
2017-10-03T00:55:44.982Z,94315.65
2017-10-03T00:58:12.742Z,94310.16
2017-10-03T01:00:40.428Z,94306.36
2017-10-03T01:03:08.248Z,94299.12
2017-10-03T01:05:35.982Z,94299.11
2017-10-03T01:08:03.679Z,94299.19
2017-10-03T01:10:31.433Z,94300.52
2017-10-03T01:12:59.151Z,94301.00
2017-10-03T01:15:26.926Z,94295.84
2017-10-03T01:17:54.654Z,94287.61
2017-10-03T01:20:22.458Z,94293.16
2017-10-03T01:22:50.162Z,94296.67
2017-10-03T01:25:17.841Z,94290.30
2017-10-03T01:27:45.588Z,94294.99
2017-10-03T01:30:13.249Z,94303.84
2017-10-03T01:32:40.984Z,94304.83
2017-10-03T01:35:08.725Z,94305.45
2017-10-03T01:40:34.309Z,94308.44
2017-10-03T01:43:02.015Z,94309.13
2017-10-03T01:45:29.767Z,94309.19
2017-10-03T01:47:57.440Z,94307.50
2017-10-03T01:50:25.180Z,94310.28
2017-10-03T01:52:52.986Z,94307.77
2017-10-03T01:55:20.844Z,94315.65
2017-10-03T01:57:48.623Z,94305.45
2017-10-03T02:00:16.353Z,94304.33
2017-10-03T02:02:44.031Z,94309.33
2017-10-03T02:05:11.884Z,94295.44
2017-10-03T02:07:39.558Z,94301.83
2017-10-03T02:10:07.299Z,94290.69
2017-10-03T02:12:35.060Z,94298.31
2017-10-03T02:15:02.793Z,94297.23
2017-10-03T02:17:30.603Z,94294.58
2017-10-03T02:19:58.312Z,94290.84
2017-10-03T02:22:25.999Z,94292.94
2017-10-03T02:24:53.725Z,94297.70
2017-10-03T02:27:21.443Z,94285.62
2017-10-03T02:29:49.184Z,94280.49
2017-10-03T02:32:16.885Z,94278.44
2017-10-03T02:34:44.605Z,94281.91
2017-10-03T02:37:12.368Z,94279.64
2017-10-03T02:39:40.075Z,94280.47
2017-10-03T02:42:07.752Z,94279.67
2017-10-03T02:44:35.488Z,94270.84
2017-10-03T02:47:03.250Z,94272.98
2017-10-03T02:49:31.013Z,94274.97
2017-10-03T02:51:58.876Z,94271.70
2017-10-03T02:54:26.564Z,94268.87
2017-10-03T02:56:54.263Z,94261.74
2017-10-03T02:59:22.058Z,94259.47
2017-10-03T03:01:49.732Z,94260.84
2017-10-03T03:04:17.471Z,94260.24
2017-10-03T03:06:45.144Z,94256.91
2017-10-03T03:09:12.877Z,94251.92
2017-10-03T03:11:40.647Z,94249.14
2017-10-03T03:14:08.335Z,94242.69
2017-10-03T03:16:36.080Z,94244.56
2017-10-03T03:19:03.837Z,94243.67
2017-10-03T03:21:31.544Z,94247.55
2017-10-03T03:23:59.335Z,94238.56
2017-10-03T03:26:27.025Z,94227.06
2017-10-03T03:28:54.712Z,94233.87
2017-10-03T03:31:22.441Z,94225.94
2017-10-03T03:33:50.155Z,94234.50
2017-10-03T03:36:18.026Z,94222.09
2017-10-03T03:38:45.716Z,94224.81
2017-10-03T03:41:13.508Z,94228.16
2017-10-03T03:43:41.279Z,94221.11
2017-10-03T03:46:09.096Z,94219.25
2017-10-03T03:48:36.848Z,94218.25
2017-10-03T03:51:04.638Z,94219.87
2017-10-03T03:53:32.429Z,94214.77
2017-10-03T03:56:00.211Z,94205.23
2017-10-03T03:58:28.741Z,94207.97
2017-10-03T04:00:56.463Z,94201.23
2017-10-03T04:03:24.157Z,94196.59
2017-10-03T04:05:51.943Z,94201.59
2017-10-03T04:08:19.688Z,94200.47
2017-10-03T04:10:47.408Z,94192.37
2017-10-03T04:13:15.095Z,94187.11
2017-10-03T04:15:42.851Z,94176.55
2017-10-03T04:18:10.656Z,94181.64
2017-10-03T04:20:38.432Z,94176.72
2017-10-03T04:23:06.204Z,94175.19
2017-10-03T04:25:34.075Z,94172.19
2017-10-03T04:28:01.757Z,94172.38
2017-10-03T04:30:29.423Z,94173.12
2017-10-03T04:32:57.176Z,94174.37
2017-10-03T04:35:24.863Z,94169.07
2017-10-03T04:37:52.626Z,94163.13
2017-10-03T04:40:20.335Z,94160.27
2017-10-03T04:42:47.991Z,94159.76
2017-10-03T04:45:15.749Z,94147.41
2017-10-03T04:47:43.701Z,94149.42
2017-10-03T04:50:11.457Z,94148.00
2017-10-03T04:52:39.159Z,94140.47
2017-10-03T04:55:06.937Z,94135.48
2017-10-03T04:57:34.652Z,94138.55
2017-10-03T05:00:02.371Z,94139.91
2017-10-03T05:02:30.088Z,94138.72
2017-10-03T05:04:57.803Z,94128.92
2017-10-03T05:07:25.495Z,94127.11
2017-10-03T05:09:53.224Z,94119.38
2017-10-03T05:12:20.909Z,94122.33
2017-10-03T05:14:48.616Z,94119.91
2017-10-03T05:17:16.532Z,94109.59
2017-10-03T05:19:44.198Z,94114.40
2017-10-03T05:22:11.943Z,94103.98
2017-10-03T05:24:39.665Z,94098.66
2017-10-03T05:27:07.414Z,94096.63
2017-10-03T05:29:35.091Z,94098.57
2017-10-03T05:32:02.832Z,94103.05
2017-10-03T05:34:30.577Z,94095.56
2017-10-03T05:36:58.347Z,94098.91
2017-10-03T05:39:26.095Z,94097.44
2017-10-03T05:41:53.845Z,94093.47
2017-10-03T05:44:21.609Z,94087.63
2017-10-03T05:46:49.359Z,94080.14
2017-10-03T05:49:18.083Z,94077.14
2017-10-03T05:51:46.179Z,94072.18
2017-10-03T05:54:13.888Z,94084.69
2017-10-03T05:56:41.610Z,94087.41
2017-10-03T05:59:09.344Z,94081.84
2017-10-03T06:01:37.174Z,94069.85
2017-10-03T06:04:04.950Z,94072.30
2017-10-03T06:06:32.733Z,94065.38
2017-10-03T06:09:00.508Z,94067.64
2017-10-03T06:11:28.262Z,94067.70
2017-10-03T06:13:56.028Z,94067.19
2017-10-03T06:16:23.884Z,94069.23
2017-10-03T06:18:51.612Z,94062.72
2017-10-03T06:21:19.363Z,94069.91
2017-10-03T06:23:47.136Z,94060.91
2017-10-03T06:26:15.053Z,94056.81
2017-10-03T06:28:42.786Z,94048.79
2017-10-03T06:31:10.545Z,94048.89
2017-10-03T06:33:38.350Z,94051.66
2017-10-03T06:36:06.063Z,94046.35
2017-10-03T06:38:33.764Z,94039.03
2017-10-03T06:41:01.560Z,94029.45
2017-10-03T06:43:29.373Z,94031.09
2017-10-03T06:45:57.095Z,94027.52
2017-10-03T06:48:24.880Z,94028.36
2017-10-03T06:50:52.608Z,94021.91
2017-10-03T06:53:20.342Z,94023.55
2017-10-03T06:55:48.101Z,94019.47
2017-10-03T06:58:15.880Z,94015.47
2017-10-03T07:00:43.585Z,94008.83
2017-10-03T07:03:11.329Z,94004.78
2017-10-03T07:05:39.099Z,93998.92
2017-10-03T07:08:06.839Z,94001.63
2017-10-03T07:10:35.057Z,93995.81
2017-10-03T07:13:03.299Z,93989.17
2017-10-03T07:15:31.029Z,93987.44
2017-10-03T07:17:58.849Z,93977.60
2017-10-03T07:20:26.597Z,93981.69
2017-10-03T07:22:54.298Z,93980.75
2017-10-03T07:25:22.034Z,93975.48
2017-10-03T07:27:49.836Z,93984.30
2017-10-03T07:30:17.620Z,93982.01
2017-10-03T07:32:45.367Z,93969.86
2017-10-03T07:35:13.171Z,93967.38
2017-10-03T07:37:40.955Z,93966.40
2017-10-03T07:40:09.231Z,93966.91
2017-10-03T07:42:37.069Z,93961.34
2017-10-03T07:45:04.861Z,93956.08
2017-10-03T07:47:32.589Z,93953.00
2017-10-03T07:50:00.397Z,93947.14
2017-10-03T07:52:28.110Z,93935.44
2017-10-03T07:54:55.940Z,93932.86
2017-10-03T07:57:24.195Z,93936.73
2017-10-03T07:59:51.897Z,93934.08
2017-10-03T08:02:19.760Z,93925.39
2017-10-03T08:04:47.821Z,93917.75
2017-10-03T08:07:15.602Z,93927.31
2017-10-03T08:09:43.343Z,93927.91
2017-10-03T08:12:11.082Z,93916.78
2017-10-03T08:14:38.836Z,93914.14
2017-10-03T08:17:07.472Z,93906.56
2017-10-03T08:19:35.258Z,93911.94
2017-10-03T08:22:03.038Z,93915.56
2017-10-03T08:24:30.949Z,93912.90
2017-10-03T08:26:58.758Z,93914.91
2017-10-03T08:29:27.172Z,93918.58
2017-10-03T08:31:55.842Z,93920.89
2017-10-03T08:34:23.637Z,93914.11
2017-10-03T08:36:51.605Z,93914.42
2017-10-03T08:39:19.627Z,93917.61
2017-10-03T08:41:47.434Z,93923.20
2017-10-03T08:44:15.246Z,93923.66
2017-10-03T08:46:43.050Z,93922.83
2017-10-03T08:49:10.905Z,93923.72
2017-10-03T08:51:38.864Z,93917.25
2017-10-03T08:54:06.717Z,93927.23
2017-10-03T08:56:34.518Z,93924.25
2017-10-03T08:59:02.361Z,93924.19
2017-10-03T09:01:30.066Z,93934.92
2017-10-03T09:03:57.758Z,93924.23
2017-10-03T09:06:25.530Z,93933.03
2017-10-03T09:08:53.328Z,93937.11
2017-10-03T09:11:21.233Z,93942.64
2017-10-03T09:13:49.124Z,93943.25
2017-10-03T09:16:16.870Z,93938.59
2017-10-03T09:18:45.451Z,93940.96
2017-10-03T09:21:13.324Z,93946.48
2017-10-03T09:23:41.163Z,93948.70
2017-10-03T09:26:08.896Z,93952.16
2017-10-03T09:28:36.636Z,93964.82
2017-10-03T09:31:04.427Z,93984.83
2017-10-03T09:33:32.197Z,93990.50
2017-10-03T09:36:00.092Z,93987.81
2017-10-03T09:38:27.779Z,94007.06
2017-10-03T09:40:55.525Z,94012.23
2017-10-03T09:43:23.327Z,94017.27
2017-10-03T09:45:51.079Z,94024.16
2017-10-03T09:48:18.779Z,94038.16
2017-10-03T09:50:46.678Z,94049.80
2017-10-03T09:53:14.771Z,94053.83
2017-10-03T09:55:42.527Z,94079.09
2017-10-03T09:58:11.199Z,94079.34
2017-10-03T10:00:38.958Z,94082.03
2017-10-03T10:03:06.707Z,94089.79
2017-10-03T10:05:34.423Z,94101.11
2017-10-03T10:08:02.228Z,94100.27
2017-10-03T10:10:30.677Z,94107.67
2017-10-03T10:12:58.376Z,94113.30
2017-10-03T10:15:26.567Z,94108.52
2017-10-03T10:17:54.306Z,94110.05
2017-10-03T10:20:22.083Z,94117.97
2017-10-03T10:22:50.423Z,94125.49
2017-10-03T10:25:18.181Z,94141.69
2017-10-03T10:27:46.926Z,94144.02
2017-10-03T10:30:14.711Z,94137.30
2017-10-03T10:32:43.295Z,94136.73
2017-10-03T10:35:11.077Z,94146.83
2017-10-03T10:37:38.829Z,94154.91
2017-10-03T10:40:06.568Z,94175.98
2017-10-03T10:42:34.293Z,94187.46
2017-10-03T10:45:02.060Z,94193.28
2017-10-03T10:47:29.782Z,94198.55
2017-10-03T10:49:57.543Z,94199.42
2017-10-03T10:52:25.216Z,94204.52
2017-10-03T10:54:52.988Z,94222.20
2017-10-03T10:57:20.879Z,94214.52
2017-10-03T10:59:48.729Z,94223.03
2017-10-03T11:02:16.502Z,94224.94
2017-10-03T11:04:44.195Z,94233.18
2017-10-03T11:07:11.998Z,94235.90
2017-10-03T11:09:39.661Z,94246.52
2017-10-03T11:12:07.381Z,94248.39
2017-10-03T11:14:35.294Z,94249.33
2017-10-03T11:17:03.179Z,94261.49
2017-10-03T11:19:30.955Z,94271.09
2017-10-03T11:21:58.689Z,94276.41
2017-10-03T11:24:44.874Z,94275.89
2017-10-03T11:27:12.677Z,94282.30
2017-10-03T11:29:40.482Z,94287.42
2017-10-03T11:32:08.204Z,94293.77
2017-10-03T11:34:35.995Z,94299.98
2017-10-03T11:37:03.788Z,94311.39
2017-10-03T11:39:31.495Z,94316.38
2017-10-03T11:41:59.302Z,94329.33
2017-10-03T11:44:26.996Z,94338.91
2017-10-03T11:46:54.673Z,94341.27
2017-10-03T11:49:22.420Z,94333.87
2017-10-03T11:51:50.119Z,94360.58
2017-10-03T11:54:17.857Z,94366.45
2017-10-03T11:56:45.534Z,94383.45
2017-10-03T11:59:13.268Z,94387.19
2017-10-03T12:01:41.112Z,94408.47
2017-10-03T12:04:09.004Z,94427.14
2017-10-03T12:06:36.689Z,94417.88
2017-10-03T12:09:04.597Z,94395.30
2017-10-03T12:11:32.380Z,94390.48
2017-10-03T12:14:00.090Z,94385.89
2017-10-03T12:16:27.964Z,94385.13
2017-10-03T12:18:55.681Z,94351.78
2017-10-03T12:21:23.673Z,94321.66
2017-10-03T12:23:52.280Z,94306.45
2017-10-03T12:26:19.985Z,94325.81
2017-10-03T12:28:47.764Z,94320.72
2017-10-03T12:31:15.457Z,94328.88
2017-10-03T12:33:43.212Z,94319.09
2017-10-03T12:36:10.997Z,94318.03
2017-10-03T12:38:38.851Z,94319.08
2017-10-03T12:41:06.734Z,94316.64
2017-10-03T12:43:34.781Z,94313.33
2017-10-03T12:46:02.855Z,94310.07
2017-10-03T12:48:30.663Z,94299.47
2017-10-03T12:50:59.332Z,94309.58
2017-10-03T12:53:27.427Z,94302.99
2017-10-03T12:55:55.164Z,94316.42
2017-10-03T12:58:23.021Z,94314.09
2017-10-03T13:00:50.812Z,94318.02
2017-10-03T13:03:18.675Z,94319.96
2017-10-03T13:05:46.517Z,94320.23
2017-10-03T13:08:16.116Z,94323.52
2017-10-03T13:10:44.325Z,94335.29
2017-10-03T13:13:12.650Z,94351.59
2017-10-03T13:15:40.491Z,94339.08
2017-10-03T13:18:08.264Z,94340.50
2017-10-03T13:20:36.401Z,94336.73
2017-10-03T13:23:04.870Z,94330.70
2017-10-03T13:25:32.743Z,94338.20
2017-10-03T13:28:00.701Z,94336.97
2017-10-03T13:30:28.746Z,94339.30
2017-10-03T13:32:56.510Z,94341.11
2017-10-03T13:35:24.368Z,94343.00
2017-10-03T13:37:52.238Z,94341.17
2017-10-03T13:40:21.943Z,94340.45
2017-10-03T13:42:49.763Z,94335.91
2017-10-03T13:45:19.836Z,94343.62
2017-10-03T13:47:47.779Z,94339.59
2017-10-03T13:50:15.949Z,94344.50
2017-10-03T13:52:43.927Z,94340.53
2017-10-03T13:55:12.457Z,94339.55
2017-10-03T13:57:40.215Z,94340.73
2017-10-03T14:00:08.047Z,94336.84
2017-10-03T14:02:37.816Z,94339.88
2017-10-03T14:05:05.645Z,94344.34
2017-10-03T14:07:33.503Z,94339.31
2017-10-03T14:10:01.233Z,94350.56
2017-10-03T14:12:29.288Z,94357.28
2017-10-03T14:14:57.169Z,94357.94
2017-10-03T14:17:25.737Z,94369.63
2017-10-03T14:19:54.252Z,94362.44
2017-10-03T14:22:22.062Z,94371.42
2017-10-03T14:24:49.883Z,94376.82
2017-10-03T14:27:17.691Z,94374.30
2017-10-03T14:29:45.542Z,94383.17
2017-10-03T14:32:14.240Z,94380.59
2017-10-03T14:34:42.045Z,94387.25
2017-10-03T14:37:09.747Z,94376.28
2017-10-03T14:39:37.625Z,94390.54
2017-10-03T14:42:05.482Z,94389.21
2017-10-03T14:44:33.359Z,94388.81
2017-10-03T14:47:01.105Z,94396.00
2017-10-03T14:49:29.062Z,94404.03
2017-10-03T14:51:56.983Z,94397.54
2017-10-03T14:54:24.787Z,94410.73
2017-10-03T14:56:52.571Z,94415.61
2017-10-03T14:59:20.360Z,94418.45
2017-10-03T15:01:49.417Z,94412.36
2017-10-03T15:04:17.203Z,94411.84
2017-10-03T15:06:46.327Z,94414.37
2017-10-03T15:09:14.834Z,94416.20
2017-10-03T15:11:42.641Z,94420.16
2017-10-03T15:14:10.657Z,94440.28
2017-10-03T15:16:38.415Z,94429.61
2017-10-03T15:19:06.471Z,94441.77
2017-10-03T15:21:34.208Z,94455.79
2017-10-03T15:24:01.934Z,94464.86
2017-10-03T15:26:29.765Z,94471.02
2017-10-03T15:28:58.214Z,94476.19
2017-10-03T15:31:26.057Z,94483.39
2017-10-03T15:33:53.756Z,94478.57
2017-10-03T15:36:21.554Z,94471.16
2017-10-03T15:38:49.277Z,94479.55
2017-10-03T15:41:17.030Z,94482.61
2017-10-03T15:43:44.807Z,94496.05
2017-10-03T15:46:12.529Z,94502.26
2017-10-03T15:48:40.277Z,94502.80
2017-10-03T15:51:08.150Z,94500.67
2017-10-03T15:53:35.836Z,94489.84
2017-10-03T15:56:03.605Z,94496.03
2017-10-03T15:58:31.346Z,94507.27
2017-10-03T16:00:59.237Z,94510.36
2017-10-03T16:03:27.875Z,94514.11
2017-10-03T16:05:55.639Z,94518.17
2017-10-03T16:08:24.121Z,94520.29
2017-10-03T16:10:51.832Z,94512.09
2017-10-03T16:13:19.732Z,94529.78
2017-10-03T16:15:47.424Z,94533.39
2017-10-03T16:18:15.125Z,94528.97
2017-10-03T16:20:42.863Z,94539.53
2017-10-03T16:23:10.794Z,94534.94
2017-10-03T16:25:38.542Z,94528.91
2017-10-03T16:28:06.324Z,94532.53
2017-10-03T16:30:34.088Z,94544.98
2017-10-03T16:33:01.813Z,94549.96
2017-10-03T16:35:29.593Z,94559.87
2017-10-03T16:37:57.278Z,94563.03
2017-10-03T16:40:25.141Z,94582.42
2017-10-03T16:42:52.832Z,94581.74
2017-10-03T16:45:20.531Z,94582.14
2017-10-03T16:47:48.276Z,94581.73
2017-10-03T16:50:15.960Z,94590.97
2017-10-03T16:52:43.723Z,94603.52
2017-10-03T16:55:11.501Z,94613.23
2017-10-03T16:57:39.203Z,94617.62
2017-10-03T17:00:07.127Z,94623.33
2017-10-03T17:02:34.905Z,94624.70
2017-10-03T17:05:02.666Z,94632.92
2017-10-03T17:07:30.376Z,94623.11
2017-10-03T17:09:58.145Z,94636.80
2017-10-03T17:12:25.991Z,94645.08
2017-10-03T17:14:53.767Z,94651.99
2017-10-03T17:17:21.654Z,94652.56
2017-10-03T17:19:49.422Z,94659.28
2017-10-03T17:22:17.189Z,94659.23
2017-10-03T17:24:45.081Z,94658.83
2017-10-03T17:27:12.914Z,94665.02
2017-10-03T17:29:40.687Z,94676.93
2017-10-03T17:32:08.505Z,94684.32
2017-10-03T17:34:37.599Z,94686.66
2017-10-03T17:37:05.380Z,94691.28
2017-10-03T17:39:33.960Z,94683.86
2017-10-03T17:42:01.781Z,94693.56
2017-10-03T17:44:29.512Z,94697.88
2017-10-03T17:46:57.207Z,94695.30
2017-10-03T17:49:24.997Z,94703.41
2017-10-03T17:51:52.832Z,94699.19
2017-10-03T17:54:22.080Z,94702.20
2017-10-03T17:56:49.921Z,94702.66
2017-10-03T17:59:17.704Z,94697.18
2017-10-03T18:01:45.508Z,94711.79
2017-10-03T18:04:14.878Z,94710.48
2017-10-03T18:06:44.017Z,94728.86
2017-10-03T18:09:11.965Z,94736.99
2017-10-03T18:11:39.851Z,94733.28
2017-10-03T18:14:07.702Z,94736.94
2017-10-03T18:16:35.610Z,94735.64
2017-10-03T18:19:03.555Z,94744.26
2017-10-03T18:21:31.569Z,94762.58
2017-10-03T18:23:59.489Z,94763.63
2017-10-03T18:26:28.136Z,94769.19
2017-10-03T18:28:56.302Z,94774.42
2017-10-03T18:31:24.681Z,94777.09
2017-10-03T18:33:54.296Z,94781.09
2017-10-03T18:36:22.185Z,94783.70
2017-10-03T18:38:51.567Z,94799.81
2017-10-03T18:41:20.959Z,94807.38
2017-10-03T18:43:48.818Z,94823.78
2017-10-03T18:46:16.681Z,94827.18
2017-10-03T18:48:44.451Z,94831.78
2017-10-03T18:51:13.081Z,94828.66
2017-10-03T18:53:40.946Z,94841.18
2017-10-03T18:56:08.718Z,94838.17
2017-10-03T18:58:36.459Z,94856.27
2017-10-03T19:01:04.319Z,94852.47
2017-10-03T19:03:32.783Z,94857.47
2017-10-03T19:06:00.611Z,94859.88
2017-10-03T19:08:29.543Z,94869.03
2017-10-03T19:10:59.460Z,94870.44
2017-10-03T19:13:28.038Z,94881.28
2017-10-03T19:15:56.275Z,94879.24
2017-10-03T19:18:24.192Z,94885.84
2017-10-03T19:20:52.550Z,94896.34
2017-10-03T19:23:20.418Z,94900.94
2017-10-03T19:25:48.462Z,94903.64
2017-10-03T19:28:16.634Z,94900.98
2017-10-03T19:30:44.714Z,94912.95
2017-10-03T19:33:12.718Z,94912.85
2017-10-03T19:35:40.738Z,94919.45
2017-10-03T19:38:09.982Z,94922.05
2017-10-03T19:40:39.224Z,94905.85
2017-10-03T19:43:07.919Z,94911.48
2017-10-03T19:45:37.040Z,94932.39
2017-10-03T19:48:06.122Z,94938.66
2017-10-03T19:50:33.961Z,94943.08
2017-10-03T19:53:01.787Z,94942.78
2017-10-03T19:55:29.628Z,94933.98
2017-10-03T19:57:57.392Z,94941.28
2017-10-03T20:00:25.854Z,94951.79
2017-10-03T20:02:54.740Z,94948.39
2017-10-03T20:05:22.501Z,94959.69
2017-10-03T20:07:50.373Z,94959.19
2017-10-03T20:10:19.217Z,94963.19
2017-10-03T20:12:47.938Z,94965.39
2017-10-03T20:15:15.705Z,94972.78
2017-10-03T20:17:43.408Z,94983.89
2017-10-03T20:20:11.170Z,94982.48
2017-10-03T20:22:39.129Z,94981.58
2017-10-03T20:25:06.914Z,94975.08
2017-10-03T20:27:34.680Z,94975.80
2017-10-03T20:30:03.680Z,94981.80
2017-10-03T20:32:31.377Z,94988.19
2017-10-03T20:34:59.131Z,94986.30
2017-10-03T20:37:26.830Z,94991.41
2017-10-03T20:39:54.605Z,94995.58
2017-10-03T20:42:22.384Z,95000.78
2017-10-03T20:44:50.110Z,95001.08
2017-10-03T20:47:18.347Z,95005.45
2017-10-03T20:49:47.198Z,94995.25
2017-10-03T20:52:14.918Z,94994.49
2017-10-03T20:54:42.625Z,94992.69
2017-10-03T20:57:10.394Z,95001.16
2017-10-03T20:59:38.267Z,94999.36
2017-10-03T21:02:06.039Z,95001.78
2017-10-03T21:04:33.807Z,94996.27
2017-10-03T21:07:02.127Z,95005.14
2017-10-03T21:09:30.085Z,95012.53
2017-10-03T21:11:57.910Z,95013.91
2017-10-03T21:14:26.509Z,95020.83
2017-10-03T21:16:54.239Z,95026.31
2017-10-03T21:19:21.981Z,95025.69
2017-10-03T21:21:49.670Z,95021.41
2017-10-03T21:24:17.421Z,95021.29
2017-10-03T21:26:45.124Z,95013.41
2017-10-03T21:29:12.911Z,95023.41
2017-10-03T21:31:41.566Z,95028.33
2017-10-03T21:34:09.282Z,95016.95
2017-10-03T21:36:37.046Z,95020.39
2017-10-03T21:39:04.851Z,95027.38
2017-10-03T21:41:32.732Z,95031.68
2017-10-03T21:44:01.454Z,95028.89
2017-10-03T21:46:29.599Z,95033.00
2017-10-03T21:48:57.827Z,95021.43
2017-10-03T21:51:25.792Z,95015.82
2017-10-03T21:53:53.914Z,95022.98
2017-10-03T21:56:21.871Z,95034.42
2017-10-03T21:58:49.685Z,95030.24
2017-10-03T22:01:17.413Z,95028.54
2017-10-03T22:03:45.125Z,95028.80
2017-10-03T22:06:12.867Z,95028.03
2017-10-03T22:08:40.618Z,95022.13
2017-10-03T22:11:08.316Z,95030.17
2017-10-03T22:13:36.035Z,95021.58
2017-10-03T22:16:03.778Z,95027.59
2017-10-03T22:18:31.513Z,95030.09
2017-10-03T22:20:59.217Z,95042.59
2017-10-03T22:23:27.088Z,95042.83
2017-10-03T22:25:54.795Z,95039.97
2017-10-03T22:28:22.476Z,95034.81
2017-10-03T22:30:50.232Z,95033.78
2017-10-03T22:33:17.953Z,95041.06
2017-10-03T22:35:45.736Z,95036.80
2017-10-03T22:38:13.455Z,95030.89
2017-10-03T22:40:41.204Z,95033.36
2017-10-03T22:43:08.898Z,95033.70
2017-10-03T22:45:36.603Z,95031.81
2017-10-03T22:48:04.308Z,95032.33
2017-10-03T22:50:32.059Z,95027.84
2017-10-03T22:52:59.746Z,95029.31
2017-10-03T22:55:27.501Z,95037.22
2017-10-03T22:57:55.226Z,95034.94
2017-10-03T23:00:22.904Z,95033.30
2017-10-03T23:02:50.620Z,95030.61
2017-10-03T23:05:18.301Z,95036.11
2017-10-03T23:07:46.016Z,95031.89
2017-10-03T23:10:13.716Z,95036.17
2017-10-03T23:12:41.462Z,95036.77
2017-10-03T23:15:09.220Z,95022.77
2017-10-03T23:17:36.964Z,95033.13
2017-10-03T23:20:04.646Z,95032.98
2017-10-03T23:22:32.326Z,95038.36
2017-10-03T23:25:00.141Z,95038.69
2017-10-03T23:27:27.823Z,95038.28
2017-10-03T23:29:55.509Z,95032.55
2017-10-03T23:32:23.221Z,95035.86
2017-10-03T23:34:50.925Z,95044.30
2017-10-03T23:37:18.682Z,95038.59
2017-10-03T23:39:46.972Z,95040.06
2017-10-03T23:42:14.718Z,95036.45
2017-10-03T23:44:42.384Z,95037.72
2017-10-03T23:47:10.200Z,95043.80
2017-10-03T23:49:37.875Z,95037.29
2017-10-03T23:52:05.614Z,95033.91
2017-10-03T23:54:33.365Z,95026.91
2017-10-03T23:57:01.088Z,95033.91
2017-10-03T23:59:28.756Z,95026.19
